sensor_id;sensor_type;location;lat;lon;timestamp;P1;durP1;ratioP1;P2;durP2;ratioP2
18748;SDS011;9503;53.560;10.246;2024-02-15T00:01:49;31.03;;;13.57;;
18748;SDS011;9503;53.560;10.246;2024-02-15T00:04:15;30.83;;;13.77;;
18748;SDS011;9503;53.560;10.246;2024-02-15T00:06:42;29.63;;;12.87;;
18748;SDS011;9503;53.560;10.246;2024-02-15T00:09:09;31.03;;;12.60;;
18748;SDS011;9503;53.560;10.246;2024-02-15T00:11:36;29.80;;;13.07;;
18748;SDS011;9503;53.560;10.246;2024-02-15T00:14:04;28.70;;;13.13;;
18748;SDS011;9503;53.560;10.246;2024-02-15T00:16:32;31.63;;;13.17;;
18748;SDS011;9503;53.560;10.246;2024-02-15T00:19:00;31.27;;;13.30;;
18748;SDS011;9503;53.560;10.246;2024-02-15T00:21:26;25.50;;;11.97;;
18748;SDS011;9503;53.560;10.246;2024-02-15T00:23:53;30.07;;;13.77;;
18748;SDS011;9503;53.560;10.246;2024-02-15T00:26:21;27.30;;;12.10;;
18748;SDS011;9503;53.560;10.246;2024-02-15T00:28:48;29.77;;;12.13;;
18748;SDS011;9503;53.560;10.246;2024-02-15T00:31:15;33.43;;;13.17;;
18748;SDS011;9503;53.560;10.246;2024-02-15T00:33:42;33.00;;;13.57;;
18748;SDS011;9503;53.560;10.246;2024-02-15T00:36:10;28.13;;;12.93;;
18748;SDS011;9503;53.560;10.246;2024-02-15T00:38:37;36.63;;;13.93;;
18748;SDS011;9503;53.560;10.246;2024-02-15T00:41:04;33.87;;;12.97;;
18748;SDS011;9503;53.560;10.246;2024-02-15T00:43:33;36.07;;;13.30;;
18748;SDS011;9503;53.560;10.246;2024-02-15T00:46:00;28.10;;;12.43;;
18748;SDS011;9503;53.560;10.246;2024-02-15T00:48:27;31.27;;;13.10;;
18748;SDS011;9503;53.560;10.246;2024-02-15T00:50:54;32.53;;;14.33;;
18748;SDS011;9503;53.560;10.246;2024-02-15T00:53:22;35.03;;;12.77;;
18748;SDS011;9503;53.560;10.246;2024-02-15T00:55:49;32.93;;;13.47;;
18748;SDS011;9503;53.560;10.246;2024-02-15T00:58:16;35.67;;;14.10;;
18748;SDS011;9503;53.560;10.246;2024-02-15T01:00:42;36.80;;;14.00;;
18748;SDS011;9503;53.560;10.246;2024-02-15T01:03:09;30.70;;;12.90;;
18748;SDS011;9503;53.560;10.246;2024-02-15T01:05:35;33.33;;;13.53;;
18748;SDS011;9503;53.560;10.246;2024-02-15T01:08:02;35.50;;;14.20;;
18748;SDS011;9503;53.560;10.246;2024-02-15T01:10:30;33.27;;;13.97;;
18748;SDS011;9503;53.560;10.246;2024-02-15T01:12:58;32.40;;;13.83;;
18748;SDS011;9503;53.560;10.246;2024-02-15T01:15:25;35.27;;;13.83;;
18748;SDS011;9503;53.560;10.246;2024-02-15T01:17:51;32.10;;;13.67;;
18748;SDS011;9503;53.560;10.246;2024-02-15T01:20:18;38.90;;;13.80;;
18748;SDS011;9503;53.560;10.246;2024-02-15T01:22:46;37.17;;;14.40;;
18748;SDS011;9503;53.560;10.246;2024-02-15T01:25:12;33.40;;;13.67;;
18748;SDS011;9503;53.560;10.246;2024-02-15T01:27:42;34.50;;;14.00;;
18748;SDS011;9503;53.560;10.246;2024-02-15T01:30:08;31.77;;;13.50;;
18748;SDS011;9503;53.560;10.246;2024-02-15T01:32:36;37.03;;;13.77;;
18748;SDS011;9503;53.560;10.246;2024-02-15T01:35:05;29.97;;;13.23;;
18748;SDS011;9503;53.560;10.246;2024-02-15T01:37:32;30.27;;;12.70;;
18748;SDS011;9503;53.560;10.246;2024-02-15T01:39:59;29.63;;;12.63;;
18748;SDS011;9503;53.560;10.246;2024-02-15T01:42:26;31.53;;;14.13;;
18748;SDS011;9503;53.560;10.246;2024-02-15T01:44:54;32.30;;;12.47;;
18748;SDS011;9503;53.560;10.246;2024-02-15T01:47:20;31.57;;;12.23;;
18748;SDS011;9503;53.560;10.246;2024-02-15T01:49:47;28.90;;;12.40;;
18748;SDS011;9503;53.560;10.246;2024-02-15T01:52:14;31.27;;;13.20;;
18748;SDS011;9503;53.560;10.246;2024-02-15T01:54:43;26.57;;;11.60;;
18748;SDS011;9503;53.560;10.246;2024-02-15T01:57:13;27.70;;;11.63;;
18748;SDS011;9503;53.560;10.246;2024-02-15T01:59:41;29.50;;;13.00;;
18748;SDS011;9503;53.560;10.246;2024-02-15T02:02:10;32.13;;;11.93;;
18748;SDS011;9503;53.560;10.246;2024-02-15T02:04:39;31.97;;;12.13;;
18748;SDS011;9503;53.560;10.246;2024-02-15T02:07:06;33.37;;;14.10;;
18748;SDS011;9503;53.560;10.246;2024-02-15T02:09:34;30.40;;;12.87;;
18748;SDS011;9503;53.560;10.246;2024-02-15T02:12:00;34.50;;;13.53;;
18748;SDS011;9503;53.560;10.246;2024-02-15T02:14:28;28.50;;;12.73;;
18748;SDS011;9503;53.560;10.246;2024-02-15T02:16:55;30.10;;;12.37;;
18748;SDS011;9503;53.560;10.246;2024-02-15T02:19:23;34.37;;;12.73;;
18748;SDS011;9503;53.560;10.246;2024-02-15T02:21:50;31.90;;;12.60;;
18748;SDS011;9503;53.560;10.246;2024-02-15T02:24:18;33.20;;;12.60;;
18748;SDS011;9503;53.560;10.246;2024-02-15T02:26:49;31.27;;;13.60;;
18748;SDS011;9503;53.560;10.246;2024-02-15T02:29:16;34.07;;;12.33;;
18748;SDS011;9503;53.560;10.246;2024-02-15T02:31:43;35.20;;;13.13;;
18748;SDS011;9503;53.560;10.246;2024-02-15T02:34:10;36.50;;;14.60;;
18748;SDS011;9503;53.560;10.246;2024-02-15T02:36:38;35.30;;;13.93;;
18748;SDS011;9503;53.560;10.246;2024-02-15T02:39:05;38.60;;;14.43;;
18748;SDS011;9503;53.560;10.246;2024-02-15T02:41:32;37.90;;;14.03;;
18748;SDS011;9503;53.560;10.246;2024-02-15T02:44:00;39.23;;;14.87;;
18748;SDS011;9503;53.560;10.246;2024-02-15T02:46:27;36.70;;;14.03;;
18748;SDS011;9503;53.560;10.246;2024-02-15T02:48:53;30.83;;;13.20;;
18748;SDS011;9503;53.560;10.246;2024-02-15T02:51:20;36.10;;;14.40;;
18748;SDS011;9503;53.560;10.246;2024-02-15T02:53:47;34.60;;;14.43;;
18748;SDS011;9503;53.560;10.246;2024-02-15T02:56:14;40.00;;;15.03;;
18748;SDS011;9503;53.560;10.246;2024-02-15T02:58:40;39.27;;;14.33;;
18748;SDS011;9503;53.560;10.246;2024-02-15T03:01:09;36.00;;;13.83;;
18748;SDS011;9503;53.560;10.246;2024-02-15T03:03:36;34.97;;;14.30;;
18748;SDS011;9503;53.560;10.246;2024-02-15T03:06:04;34.87;;;15.00;;
18748;SDS011;9503;53.560;10.246;2024-02-15T03:08:31;38.67;;;13.70;;
18748;SDS011;9503;53.560;10.246;2024-02-15T03:10:57;36.70;;;14.50;;
18748;SDS011;9503;53.560;10.246;2024-02-15T03:13:24;38.97;;;14.80;;
18748;SDS011;9503;53.560;10.246;2024-02-15T03:15:51;35.53;;;13.47;;
18748;SDS011;9503;53.560;10.246;2024-02-15T03:18:19;35.37;;;14.57;;
18748;SDS011;9503;53.560;10.246;2024-02-15T03:20:45;33.20;;;13.93;;
18748;SDS011;9503;53.560;10.246;2024-02-15T03:23:13;39.80;;;14.27;;
18748;SDS011;9503;53.560;10.246;2024-02-15T03:25:40;32.80;;;13.87;;
18748;SDS011;9503;53.560;10.246;2024-02-15T03:28:06;36.43;;;14.00;;
18748;SDS011;9503;53.560;10.246;2024-02-15T03:30:33;39.20;;;14.57;;
18748;SDS011;9503;53.560;10.246;2024-02-15T03:33:00;37.77;;;14.83;;
18748;SDS011;9503;53.560;10.246;2024-02-15T03:35:31;30.53;;;13.77;;
18748;SDS011;9503;53.560;10.246;2024-02-15T03:37:58;35.40;;;13.80;;
18748;SDS011;9503;53.560;10.246;2024-02-15T03:40:24;36.17;;;14.10;;
18748;SDS011;9503;53.560;10.246;2024-02-15T03:42:51;34.20;;;14.27;;
18748;SDS011;9503;53.560;10.246;2024-02-15T03:45:18;30.47;;;12.87;;
18748;SDS011;9503;53.560;10.246;2024-02-15T03:47:45;32.37;;;12.77;;
18748;SDS011;9503;53.560;10.246;2024-02-15T03:50:12;33.53;;;13.03;;
18748;SDS011;9503;53.560;10.246;2024-02-15T03:52:41;28.67;;;11.43;;
18748;SDS011;9503;53.560;10.246;2024-02-15T03:55:07;32.07;;;13.10;;
18748;SDS011;9503;53.560;10.246;2024-02-15T03:57:35;32.03;;;11.63;;
18748;SDS011;9503;53.560;10.246;2024-02-15T04:00:05;26.30;;;10.83;;
18748;SDS011;9503;53.560;10.246;2024-02-15T04:02:33;24.77;;;10.67;;
18748;SDS011;9503;53.560;10.246;2024-02-15T04:05:00;27.97;;;10.53;;
18748;SDS011;9503;53.560;10.246;2024-02-15T04:07:30;28.83;;;11.67;;
18748;SDS011;9503;53.560;10.246;2024-02-15T04:09:58;26.80;;;11.17;;
18748;SDS011;9503;53.560;10.246;2024-02-15T04:12:25;26.63;;;11.07;;
18748;SDS011;9503;53.560;10.246;2024-02-15T04:14:53;29.60;;;11.27;;
18748;SDS011;9503;53.560;10.246;2024-02-15T04:17:21;30.43;;;12.30;;
18748;SDS011;9503;53.560;10.246;2024-02-15T04:19:48;35.60;;;12.40;;
18748;SDS011;9503;53.560;10.246;2024-02-15T04:22:15;26.87;;;12.03;;
18748;SDS011;9503;53.560;10.246;2024-02-15T04:24:42;34.13;;;12.47;;
18748;SDS011;9503;53.560;10.246;2024-02-15T04:27:11;30.47;;;12.40;;
18748;SDS011;9503;53.560;10.246;2024-02-15T04:29:38;39.00;;;13.60;;
18748;SDS011;9503;53.560;10.246;2024-02-15T04:32:06;35.13;;;12.53;;
18748;SDS011;9503;53.560;10.246;2024-02-15T04:34:35;38.00;;;12.63;;
18748;SDS011;9503;53.560;10.246;2024-02-15T04:37:02;37.60;;;13.50;;
18748;SDS011;9503;53.560;10.246;2024-02-15T04:39:31;34.17;;;12.80;;
18748;SDS011;9503;53.560;10.246;2024-02-15T04:41:58;36.93;;;14.20;;
18748;SDS011;9503;53.560;10.246;2024-02-15T04:44:26;41.63;;;14.17;;
18748;SDS011;9503;53.560;10.246;2024-02-15T04:46:53;38.00;;;13.77;;
18748;SDS011;9503;53.560;10.246;2024-02-15T04:49:19;39.87;;;13.27;;
18748;SDS011;9503;53.560;10.246;2024-02-15T04:51:47;39.80;;;14.57;;
18748;SDS011;9503;53.560;10.246;2024-02-15T04:54:14;40.37;;;14.53;;
18748;SDS011;9503;53.560;10.246;2024-02-15T04:56:43;42.10;;;14.77;;
18748;SDS011;9503;53.560;10.246;2024-02-15T04:59:11;45.80;;;16.27;;
18748;SDS011;9503;53.560;10.246;2024-02-15T05:01:41;43.33;;;15.57;;
18748;SDS011;9503;53.560;10.246;2024-02-15T05:04:09;46.43;;;15.90;;
18748;SDS011;9503;53.560;10.246;2024-02-15T05:06:36;43.20;;;16.23;;
18748;SDS011;9503;53.560;10.246;2024-02-15T05:09:03;44.37;;;16.07;;
18748;SDS011;9503;53.560;10.246;2024-02-15T05:11:32;43.30;;;15.23;;
18748;SDS011;9503;53.560;10.246;2024-02-15T05:14:00;47.10;;;17.27;;
18748;SDS011;9503;53.560;10.246;2024-02-15T05:16:27;47.00;;;16.77;;
18748;SDS011;9503;53.560;10.246;2024-02-15T05:18:55;42.90;;;16.27;;
18748;SDS011;9503;53.560;10.246;2024-02-15T05:21:21;53.27;;;16.87;;
18748;SDS011;9503;53.560;10.246;2024-02-15T05:23:48;53.67;;;18.23;;
18748;SDS011;9503;53.560;10.246;2024-02-15T05:26:17;48.50;;;15.47;;
18748;SDS011;9503;53.560;10.246;2024-02-15T05:28:48;46.07;;;16.27;;
18748;SDS011;9503;53.560;10.246;2024-02-15T05:31:15;46.63;;;16.30;;
18748;SDS011;9503;53.560;10.246;2024-02-15T05:33:45;47.77;;;17.80;;
18748;SDS011;9503;53.560;10.246;2024-02-15T05:36:14;47.97;;;17.67;;
18748;SDS011;9503;53.560;10.246;2024-02-15T05:38:41;44.10;;;16.70;;
18748;SDS011;9503;53.560;10.246;2024-02-15T05:41:10;44.43;;;16.33;;
18748;SDS011;9503;53.560;10.246;2024-02-15T05:43:37;45.93;;;16.80;;
18748;SDS011;9503;53.560;10.246;2024-02-15T05:46:07;53.83;;;17.40;;
18748;SDS011;9503;53.560;10.246;2024-02-15T05:48:34;47.37;;;16.17;;
18748;SDS011;9503;53.560;10.246;2024-02-15T05:51:01;51.57;;;15.83;;
18748;SDS011;9503;53.560;10.246;2024-02-15T05:53:30;48.87;;;17.03;;
18748;SDS011;9503;53.560;10.246;2024-02-15T05:55:58;45.50;;;16.60;;
18748;SDS011;9503;53.560;10.246;2024-02-15T05:58:24;45.00;;;16.37;;
18748;SDS011;9503;53.560;10.246;2024-02-15T06:00:51;48.23;;;16.57;;
18748;SDS011;9503;53.560;10.246;2024-02-15T06:03:19;43.60;;;15.73;;
18748;SDS011;9503;53.560;10.246;2024-02-15T06:05:48;40.60;;;16.33;;
18748;SDS011;9503;53.560;10.246;2024-02-15T06:08:14;45.97;;;17.37;;
18748;SDS011;9503;53.560;10.246;2024-02-15T06:10:42;46.87;;;16.73;;
18748;SDS011;9503;53.560;10.246;2024-02-15T06:13:09;45.97;;;16.53;;
18748;SDS011;9503;53.560;10.246;2024-02-15T06:15:36;50.07;;;16.20;;
18748;SDS011;9503;53.560;10.246;2024-02-15T06:18:02;48.13;;;15.93;;
18748;SDS011;9503;53.560;10.246;2024-02-15T06:20:34;50.97;;;16.23;;
18748;SDS011;9503;53.560;10.246;2024-02-15T06:23:00;49.30;;;16.70;;
18748;SDS011;9503;53.560;10.246;2024-02-15T06:25:30;46.80;;;16.57;;
18748;SDS011;9503;53.560;10.246;2024-02-15T06:27:58;42.77;;;16.07;;
18748;SDS011;9503;53.560;10.246;2024-02-15T06:30:27;45.30;;;15.67;;
18748;SDS011;9503;53.560;10.246;2024-02-15T06:33:11;50.40;;;16.13;;
18748;SDS011;9503;53.560;10.246;2024-02-15T06:35:52;45.63;;;15.63;;
18748;SDS011;9503;53.560;10.246;2024-02-15T06:38:36;51.27;;;16.67;;
18748;SDS011;9503;53.560;10.246;2024-02-15T06:41:28;51.87;;;17.17;;
18748;SDS011;9503;53.560;10.246;2024-02-15T06:43:56;52.73;;;16.00;;
18748;SDS011;9503;53.560;10.246;2024-02-15T06:46:23;50.10;;;16.13;;
18748;SDS011;9503;53.560;10.246;2024-02-15T06:48:50;54.70;;;16.50;;
18748;SDS011;9503;53.560;10.246;2024-02-15T06:51:18;52.37;;;16.97;;
18748;SDS011;9503;53.560;10.246;2024-02-15T06:53:44;50.90;;;17.53;;
18748;SDS011;9503;53.560;10.246;2024-02-15T06:56:11;50.77;;;16.17;;
18748;SDS011;9503;53.560;10.246;2024-02-15T06:58:39;49.53;;;14.83;;
18748;SDS011;9503;53.560;10.246;2024-02-15T07:01:07;52.63;;;15.40;;
18748;SDS011;9503;53.560;10.246;2024-02-15T07:03:34;52.60;;;15.30;;
18748;SDS011;9503;53.560;10.246;2024-02-15T07:06:01;49.07;;;15.13;;
18748;SDS011;9503;53.560;10.246;2024-02-15T07:08:28;46.57;;;15.90;;
18748;SDS011;9503;53.560;10.246;2024-02-15T07:10:55;43.63;;;15.50;;
18748;SDS011;9503;53.560;10.246;2024-02-15T07:13:21;46.00;;;14.97;;
18748;SDS011;9503;53.560;10.246;2024-02-15T07:15:48;41.37;;;14.80;;
18748;SDS011;9503;53.560;10.246;2024-02-15T07:18:16;47.53;;;15.27;;
18748;SDS011;9503;53.560;10.246;2024-02-15T07:20:45;43.70;;;15.03;;
18748;SDS011;9503;53.560;10.246;2024-02-15T07:23:12;49.13;;;15.50;;
18748;SDS011;9503;53.560;10.246;2024-02-15T07:25:38;42.33;;;14.70;;
18748;SDS011;9503;53.560;10.246;2024-02-15T07:28:05;44.00;;;15.23;;
18748;SDS011;9503;53.560;10.246;2024-02-15T07:30:33;50.47;;;16.50;;
18748;SDS011;9503;53.560;10.246;2024-02-15T07:32:59;49.67;;;15.53;;
18748;SDS011;9503;53.560;10.246;2024-02-15T07:35:28;52.27;;;16.10;;
18748;SDS011;9503;53.560;10.246;2024-02-15T07:37:55;45.47;;;15.63;;
18748;SDS011;9503;53.560;10.246;2024-02-15T07:40:23;49.17;;;16.57;;
18748;SDS011;9503;53.560;10.246;2024-02-15T07:42:54;48.20;;;15.80;;
18748;SDS011;9503;53.560;10.246;2024-02-15T07:45:22;56.70;;;17.80;;
18748;SDS011;9503;53.560;10.246;2024-02-15T07:47:49;41.53;;;15.40;;
18748;SDS011;9503;53.560;10.246;2024-02-15T07:50:16;43.43;;;14.77;;
18748;SDS011;9503;53.560;10.246;2024-02-15T07:52:46;44.57;;;15.10;;
18748;SDS011;9503;53.560;10.246;2024-02-15T07:55:13;50.07;;;16.90;;
18748;SDS011;9503;53.560;10.246;2024-02-15T07:57:40;47.93;;;14.93;;
18748;SDS011;9503;53.560;10.246;2024-02-15T08:00:07;54.40;;;16.97;;
18748;SDS011;9503;53.560;10.246;2024-02-15T08:02:36;50.00;;;17.97;;
18748;SDS011;9503;53.560;10.246;2024-02-15T08:05:05;45.53;;;16.43;;
18748;SDS011;9503;53.560;10.246;2024-02-15T08:07:35;48.67;;;16.00;;
18748;SDS011;9503;53.560;10.246;2024-02-15T08:10:04;50.33;;;16.17;;
18748;SDS011;9503;53.560;10.246;2024-02-15T08:12:33;43.23;;;15.43;;
18748;SDS011;9503;53.560;10.246;2024-02-15T08:14:59;48.40;;;16.07;;
18748;SDS011;9503;53.560;10.246;2024-02-15T08:17:26;48.57;;;16.07;;
18748;SDS011;9503;53.560;10.246;2024-02-15T08:19:54;41.13;;;14.37;;
18748;SDS011;9503;53.560;10.246;2024-02-15T08:22:20;40.73;;;15.53;;
18748;SDS011;9503;53.560;10.246;2024-02-15T08:24:48;46.63;;;15.93;;
18748;SDS011;9503;53.560;10.246;2024-02-15T08:27:17;40.90;;;14.77;;
18748;SDS011;9503;53.560;10.246;2024-02-15T08:29:43;40.43;;;14.80;;
18748;SDS011;9503;53.560;10.246;2024-02-15T08:32:10;37.13;;;13.97;;
18748;SDS011;9503;53.560;10.246;2024-02-15T08:34:36;38.60;;;13.83;;
18748;SDS011;9503;53.560;10.246;2024-02-15T08:37:03;38.73;;;14.23;;
18748;SDS011;9503;53.560;10.246;2024-02-15T08:39:30;36.53;;;13.27;;
18748;SDS011;9503;53.560;10.246;2024-02-15T08:41:56;36.07;;;13.70;;
18748;SDS011;9503;53.560;10.246;2024-02-15T08:44:25;34.50;;;12.50;;
18748;SDS011;9503;53.560;10.246;2024-02-15T08:46:51;37.43;;;12.53;;
18748;SDS011;9503;53.560;10.246;2024-02-15T08:49:18;41.03;;;14.43;;
18748;SDS011;9503;53.560;10.246;2024-02-15T08:51:45;31.17;;;12.53;;
18748;SDS011;9503;53.560;10.246;2024-02-15T08:54:12;30.07;;;11.93;;
18748;SDS011;9503;53.560;10.246;2024-02-15T08:56:38;29.13;;;12.03;;
18748;SDS011;9503;53.560;10.246;2024-02-15T08:59:05;25.40;;;11.70;;
18748;SDS011;9503;53.560;10.246;2024-02-15T09:01:33;33.93;;;11.83;;
18748;SDS011;9503;53.560;10.246;2024-02-15T09:03:59;30.87;;;11.00;;
18748;SDS011;9503;53.560;10.246;2024-02-15T09:06:26;27.07;;;12.07;;
18748;SDS011;9503;53.560;10.246;2024-02-15T09:08:53;24.33;;;10.87;;
18748;SDS011;9503;53.560;10.246;2024-02-15T09:11:19;24.47;;;11.50;;
18748;SDS011;9503;53.560;10.246;2024-02-15T09:13:46;26.50;;;11.97;;
18748;SDS011;9503;53.560;10.246;2024-02-15T09:16:16;21.47;;;9.60;;
18748;SDS011;9503;53.560;10.246;2024-02-15T09:18:44;22.13;;;10.03;;
18748;SDS011;9503;53.560;10.246;2024-02-15T09:21:11;27.00;;;8.80;;
18748;SDS011;9503;53.560;10.246;2024-02-15T09:23:37;23.83;;;9.57;;
18748;SDS011;9503;53.560;10.246;2024-02-15T09:26:05;20.67;;;9.63;;
18748;SDS011;9503;53.560;10.246;2024-02-15T09:28:32;17.13;;;8.40;;
18748;SDS011;9503;53.560;10.246;2024-02-15T09:30:59;23.23;;;9.27;;
18748;SDS011;9503;53.560;10.246;2024-02-15T09:33:26;19.33;;;8.77;;
18748;SDS011;9503;53.560;10.246;2024-02-15T09:35:54;17.20;;;8.00;;
18748;SDS011;9503;53.560;10.246;2024-02-15T09:38:21;19.10;;;9.03;;
18748;SDS011;9503;53.560;10.246;2024-02-15T09:40:50;18.90;;;9.30;;
18748;SDS011;9503;53.560;10.246;2024-02-15T09:43:16;20.87;;;8.07;;
18748;SDS011;9503;53.560;10.246;2024-02-15T09:45:43;18.33;;;9.27;;
18748;SDS011;9503;53.560;10.246;2024-02-15T09:48:10;18.30;;;8.30;;
18748;SDS011;9503;53.560;10.246;2024-02-15T09:50:38;19.67;;;8.60;;
18748;SDS011;9503;53.560;10.246;2024-02-15T09:53:11;17.40;;;8.70;;
18748;SDS011;9503;53.560;10.246;2024-02-15T09:55:40;23.60;;;10.00;;
18748;SDS011;9503;53.560;10.246;2024-02-15T09:58:07;19.90;;;9.73;;
18748;SDS011;9503;53.560;10.246;2024-02-15T10:00:34;17.40;;;9.73;;
18748;SDS011;9503;53.560;10.246;2024-02-15T10:03:02;20.60;;;10.20;;
18748;SDS011;9503;53.560;10.246;2024-02-15T10:05:31;20.57;;;9.63;;
18748;SDS011;9503;53.560;10.246;2024-02-15T10:07:58;20.30;;;9.07;;
18748;SDS011;9503;53.560;10.246;2024-02-15T10:10:27;19.20;;;9.90;;
18748;SDS011;9503;53.560;10.246;2024-02-15T10:12:54;23.27;;;10.47;;
18748;SDS011;9503;53.560;10.246;2024-02-15T10:15:28;21.80;;;9.43;;
18748;SDS011;9503;53.560;10.246;2024-02-15T10:17:56;19.80;;;9.47;;
18748;SDS011;9503;53.560;10.246;2024-02-15T10:20:23;17.30;;;9.23;;
18748;SDS011;9503;53.560;10.246;2024-02-15T10:22:51;25.43;;;10.63;;
18748;SDS011;9503;53.560;10.246;2024-02-15T10:25:20;27.20;;;11.87;;
18748;SDS011;9503;53.560;10.246;2024-02-15T10:27:49;25.37;;;11.40;;
18748;SDS011;9503;53.560;10.246;2024-02-15T10:30:16;25.20;;;12.03;;
18748;SDS011;9503;53.560;10.246;2024-02-15T10:32:44;28.53;;;12.73;;
18748;SDS011;9503;53.560;10.246;2024-02-15T10:35:18;23.60;;;11.90;;
18748;SDS011;9503;53.560;10.246;2024-02-15T10:37:46;25.90;;;12.57;;
18748;SDS011;9503;53.560;10.246;2024-02-15T10:40:17;30.63;;;15.10;;
18748;SDS011;9503;53.560;10.246;2024-02-15T10:42:44;31.40;;;13.30;;
18748;SDS011;9503;53.560;10.246;2024-02-15T10:45:14;37.50;;;14.60;;
18748;SDS011;9503;53.560;10.246;2024-02-15T10:47:44;29.97;;;14.57;;
18748;SDS011;9503;53.560;10.246;2024-02-15T10:50:12;30.47;;;15.10;;
18748;SDS011;9503;53.560;10.246;2024-02-15T10:52:42;30.00;;;14.00;;
18748;SDS011;9503;53.560;10.246;2024-02-15T10:55:14;34.33;;;15.20;;
18748;SDS011;9503;53.560;10.246;2024-02-15T10:57:48;34.00;;;15.73;;
18748;SDS011;9503;53.560;10.246;2024-02-15T11:00:20;38.20;;;15.80;;
18748;SDS011;9503;53.560;10.246;2024-02-15T11:02:58;31.37;;;15.13;;
18748;SDS011;9503;53.560;10.246;2024-02-15T11:05:30;39.27;;;17.20;;
18748;SDS011;9503;53.560;10.246;2024-02-15T11:07:59;38.43;;;16.20;;
18748;SDS011;9503;53.560;10.246;2024-02-15T11:10:27;36.30;;;16.53;;
18748;SDS011;9503;53.560;10.246;2024-02-15T11:12:54;36.43;;;16.57;;
18748;SDS011;9503;53.560;10.246;2024-02-15T11:15:46;39.88;;;18.70;;
18748;SDS011;9503;53.560;10.246;2024-02-15T11:21:09;37.20;;;16.67;;
18748;SDS011;9503;53.560;10.246;2024-02-15T11:23:35;37.13;;;16.97;;
18748;SDS011;9503;53.560;10.246;2024-02-15T11:26:03;34.07;;;15.83;;
18748;SDS011;9503;53.560;10.246;2024-02-15T11:28:34;37.07;;;16.53;;
18748;SDS011;9503;53.560;10.246;2024-02-15T11:31:05;36.73;;;18.00;;
18748;SDS011;9503;53.560;10.246;2024-02-15T11:33:34;32.30;;;16.55;;
18748;SDS011;9503;53.560;10.246;2024-02-15T11:36:02;34.55;;;15.85;;
18748;SDS011;9503;53.560;10.246;2024-02-15T11:38:30;38.53;;;17.52;;
18748;SDS011;9503;53.560;10.246;2024-02-15T11:41:00;39.30;;;17.85;;
18748;SDS011;9503;53.560;10.246;2024-02-15T11:46:23;34.90;;;17.37;;
18748;SDS011;9503;53.560;10.246;2024-02-15T11:48:52;40.43;;;17.47;;
18748;SDS011;9503;53.560;10.246;2024-02-15T11:51:24;33.38;;;16.38;;
18748;SDS011;9503;53.560;10.246;2024-02-15T11:53:58;37.37;;;16.97;;
18748;SDS011;9503;53.560;10.246;2024-02-15T11:56:26;35.67;;;16.30;;
18748;SDS011;9503;53.560;10.246;2024-02-15T11:59:01;38.57;;;16.80;;
18748;SDS011;9503;53.560;10.246;2024-02-15T12:01:32;35.93;;;18.50;;
18748;SDS011;9503;53.560;10.246;2024-02-15T12:04:16;32.50;;;15.90;;
18748;SDS011;9503;53.560;10.246;2024-02-15T12:07:02;38.20;;;18.33;;
18748;SDS011;9503;53.560;10.246;2024-02-15T12:09:46;34.27;;;16.50;;
18748;SDS011;9503;53.560;10.246;2024-02-15T12:12:30;32.43;;;16.13;;
18748;SDS011;9503;53.560;10.246;2024-02-15T12:15:14;34.75;;;18.17;;
18748;SDS011;9503;53.560;10.246;2024-02-15T12:20:59;34.97;;;18.20;;
18748;SDS011;9503;53.560;10.246;2024-02-15T12:23:27;32.17;;;17.17;;
18748;SDS011;9503;53.560;10.246;2024-02-15T12:25:55;36.60;;;17.50;;
18748;SDS011;9503;53.560;10.246;2024-02-15T12:28:23;32.20;;;17.53;;
18748;SDS011;9503;53.560;10.246;2024-02-15T12:30:54;31.60;;;16.45;;
18748;SDS011;9503;53.560;10.246;2024-02-15T12:33:22;34.90;;;17.05;;
18748;SDS011;9503;53.560;10.246;2024-02-15T12:35:49;31.10;;;16.38;;
18748;SDS011;9503;53.560;10.246;2024-02-15T12:38:16;34.53;;;17.05;;
18748;SDS011;9503;53.560;10.246;2024-02-15T12:40:43;33.23;;;17.00;;
18748;SDS011;9503;53.560;10.246;2024-02-15T12:43:10;35.80;;;15.37;;
18748;SDS011;9503;53.560;10.246;2024-02-15T12:45:38;36.47;;;17.13;;
18748;SDS011;9503;53.560;10.246;2024-02-15T12:48:06;30.20;;;16.37;;
18748;SDS011;9503;53.560;10.246;2024-02-15T12:50:35;28.87;;;15.67;;
18748;SDS011;9503;53.560;10.246;2024-02-15T12:53:02;27.42;;;15.10;;
18748;SDS011;9503;53.560;10.246;2024-02-15T12:55:31;26.10;;;13.68;;
18748;SDS011;9503;53.560;10.246;2024-02-15T12:57:59;29.00;;;15.43;;
18748;SDS011;9503;53.560;10.246;2024-02-15T13:00:29;24.92;;;14.30;;
18748;SDS011;9503;53.560;10.246;2024-02-15T13:02:58;27.45;;;13.82;;
18748;SDS011;9503;53.560;10.246;2024-02-15T13:05:28;26.97;;;14.30;;
18748;SDS011;9503;53.560;10.246;2024-02-15T13:07:57;24.97;;;12.67;;
18748;SDS011;9503;53.560;10.246;2024-02-15T13:10:24;23.53;;;12.50;;
18748;SDS011;9503;53.560;10.246;2024-02-15T13:12:51;25.47;;;13.43;;
18748;SDS011;9503;53.560;10.246;2024-02-15T13:15:20;23.17;;;12.90;;
18748;SDS011;9503;53.560;10.246;2024-02-15T13:17:52;23.23;;;12.67;;
18748;SDS011;9503;53.560;10.246;2024-02-15T13:20:20;22.43;;;11.57;;
18748;SDS011;9503;53.560;10.246;2024-02-15T13:22:58;20.30;;;12.47;;
18748;SDS011;9503;53.560;10.246;2024-02-15T13:25:27;21.70;;;11.60;;
18748;SDS011;9503;53.560;10.246;2024-02-15T13:27:54;22.57;;;11.70;;
18748;SDS011;9503;53.560;10.246;2024-02-15T13:30:21;19.60;;;11.23;;
18748;SDS011;9503;53.560;10.246;2024-02-15T13:32:52;18.17;;;11.03;;
18748;SDS011;9503;53.560;10.246;2024-02-15T13:35:19;17.97;;;10.27;;
18748;SDS011;9503;53.560;10.246;2024-02-15T13:37:48;18.73;;;9.93;;
18748;SDS011;9503;53.560;10.246;2024-02-15T13:40:18;14.93;;;9.43;;
18748;SDS011;9503;53.560;10.246;2024-02-15T13:42:48;16.13;;;9.20;;
18748;SDS011;9503;53.560;10.246;2024-02-15T13:45:18;16.67;;;9.07;;
18748;SDS011;9503;53.560;10.246;2024-02-15T13:47:45;18.27;;;9.67;;
18748;SDS011;9503;53.560;10.246;2024-02-15T13:50:13;17.80;;;9.40;;
18748;SDS011;9503;53.560;10.246;2024-02-15T13:52:40;13.13;;;8.63;;
18748;SDS011;9503;53.560;10.246;2024-02-15T13:55:09;14.40;;;7.73;;
18748;SDS011;9503;53.560;10.246;2024-02-15T13:57:37;13.37;;;7.90;;
18748;SDS011;9503;53.560;10.246;2024-02-15T14:00:05;14.30;;;8.23;;
18748;SDS011;9503;53.560;10.246;2024-02-15T14:02:38;15.97;;;8.43;;
18748;SDS011;9503;53.560;10.246;2024-02-15T14:05:05;11.03;;;7.47;;
18748;SDS011;9503;53.560;10.246;2024-02-15T14:07:33;13.77;;;8.13;;
18748;SDS011;9503;53.560;10.246;2024-02-15T14:10:01;11.83;;;8.20;;
18748;SDS011;9503;53.560;10.246;2024-02-15T14:12:28;10.97;;;7.87;;
18748;SDS011;9503;53.560;10.246;2024-02-15T14:14:56;12.83;;;7.50;;
18748;SDS011;9503;53.560;10.246;2024-02-15T14:17:23;12.00;;;8.27;;
18748;SDS011;9503;53.560;10.246;2024-02-15T14:19:49;13.57;;;8.80;;
18748;SDS011;9503;53.560;10.246;2024-02-15T14:22:16;13.73;;;8.87;;
18748;SDS011;9503;53.560;10.246;2024-02-15T14:24:42;13.57;;;8.57;;
18748;SDS011;9503;53.560;10.246;2024-02-15T14:27:09;17.23;;;9.97;;
18748;SDS011;9503;53.560;10.246;2024-02-15T14:29:36;17.17;;;8.83;;
18748;SDS011;9503;53.560;10.246;2024-02-15T14:32:11;14.47;;;8.73;;
18748;SDS011;9503;53.560;10.246;2024-02-15T14:34:55;15.33;;;8.70;;
18748;SDS011;9503;53.560;10.246;2024-02-15T14:37:22;18.07;;;9.10;;
18748;SDS011;9503;53.560;10.246;2024-02-15T14:39:49;17.07;;;9.90;;